createdAt,value
2017-01-22T00:00:02.871Z,-2.5
2017-01-22T00:05:02.504Z,-2.7
2017-01-22T00:10:02.556Z,-2.7
2017-01-22T00:15:02.509Z,-2.7
2017-01-22T00:20:03.211Z,-2.7
2017-01-22T00:25:02.803Z,-2.7
2017-01-22T00:30:02.638Z,-2.7
2017-01-22T00:35:02.441Z,-2.7
2017-01-22T00:40:03.314Z,-2.9
2017-01-22T00:45:03.236Z,-2.9
2017-01-22T00:50:02.833Z,-3.0
2017-01-22T00:55:02.929Z,-3.0
2017-01-22T01:00:02.665Z,-3.0
2017-01-22T01:05:03.285Z,-3.0
2017-01-22T01:10:02.812Z,-3.0
2017-01-22T01:15:02.644Z,-3.0
2017-01-22T01:20:02.444Z,-3.0
2017-01-22T01:25:03.141Z,-3.0
2017-01-22T01:30:02.832Z,-3.0
2017-01-22T01:35:02.479Z,-3.2
2017-01-22T01:40:02.624Z,-3.2
2017-01-22T01:45:02.475Z,-3.2
2017-01-22T01:50:03.122Z,-3.2
2017-01-22T01:55:02.961Z,-3.7
2017-01-22T02:00:02.681Z,-3.7
2017-01-22T02:05:03.301Z,-3.7
2017-01-22T02:10:02.916Z,-3.9
2017-01-22T02:15:02.830Z,-3.9
2017-01-22T02:20:02.602Z,-3.7
2017-01-22T02:25:02.524Z,-3.7
2017-01-22T02:30:03.214Z,-3.7
2017-01-22T02:35:03.151Z,-3.9
2017-01-22T02:40:03.343Z,-3.9
2017-01-22T02:45:02.998Z,-4.0
2017-01-22T02:50:02.672Z,-4.3
2017-01-22T02:55:03.574Z,-4.0
2017-01-22T03:00:02.474Z,-4.0
2017-01-22T03:05:03.305Z,-3.9
2017-01-22T03:10:03.087Z,-3.9
2017-01-22T03:15:02.778Z,-4.0
2017-01-22T03:20:02.393Z,-4.3
2017-01-22T03:25:03.101Z,-4.3
2017-01-22T03:30:02.900Z,-4.5
2017-01-22T03:35:02.506Z,-4.3
2017-01-22T03:40:03.023Z,-4.3
2017-01-22T03:45:02.730Z,-4.3
2017-01-22T03:50:02.422Z,-4.5
2017-01-22T03:55:03.145Z,-4.6
2017-01-22T04:00:02.984Z,-4.6
2017-01-22T04:05:02.968Z,-4.9
2017-01-22T04:10:02.724Z,-4.9
2017-01-22T04:15:02.479Z,-5.1
2017-01-22T04:20:03.344Z,-5.1
2017-01-22T04:25:03.305Z,-5.1
2017-01-22T04:30:03.204Z,-5.1
2017-01-22T04:35:03.112Z,-5.4
2017-01-22T04:40:02.875Z,-5.4
2017-01-22T04:45:02.711Z,-5.1
2017-01-22T04:50:02.583Z,-5.1
2017-01-22T04:55:02.512Z,-5.4
2017-01-22T05:00:03.263Z,-5.1
2017-01-22T05:05:03.105Z,-5.4
2017-01-22T05:10:02.905Z,-5.4
2017-01-22T05:15:02.490Z,-5.5
2017-01-22T05:20:03.173Z,-5.4
2017-01-22T05:25:03.122Z,-5.4
2017-01-22T05:30:02.878Z,-5.5
2017-01-22T05:35:02.713Z,-5.5
2017-01-22T05:40:02.724Z,-5.5
2017-01-22T05:45:03.447Z,-5.5
2017-01-22T05:50:02.590Z,-5.5
2017-01-22T05:55:03.318Z,-5.5
2017-01-22T06:00:03.304Z,-5.8
2017-01-22T06:05:03.238Z,-5.8
2017-01-22T06:10:02.912Z,-5.8
2017-01-22T06:15:02.458Z,-5.8
2017-01-22T06:20:03.243Z,-5.8
2017-01-22T06:25:03.253Z,-6.0
2017-01-22T06:30:02.856Z,-5.8
2017-01-22T06:35:02.838Z,-6.0
2017-01-22T06:40:02.826Z,-6.0
2017-01-22T06:45:02.714Z,-6.0
2017-01-22T06:50:02.557Z,-5.8
2017-01-22T06:55:03.341Z,-5.8
2017-01-22T07:00:03.271Z,-5.8
2017-01-22T07:05:02.780Z,-5.8
2017-01-22T07:10:02.545Z,-5.8
2017-01-22T07:15:03.125Z,-5.8
2017-01-22T07:20:02.782Z,-5.8
2017-01-22T07:25:03.264Z,-5.8
2017-01-22T07:30:02.948Z,-5.8
2017-01-22T07:35:02.488Z,-6.0
2017-01-22T07:40:02.382Z,-6.0
2017-01-22T07:45:02.926Z,-5.8
2017-01-22T07:50:02.866Z,-5.8
2017-01-22T07:55:02.895Z,-5.5
2017-01-22T08:00:02.629Z,-5.5
2017-01-22T08:05:03.189Z,-5.5
2017-01-22T08:10:02.915Z,-5.5
2017-01-22T08:15:02.747Z,-5.1
2017-01-22T08:20:02.605Z,-5.1
2017-01-22T08:25:03.362Z,-5.4
2017-01-22T08:30:03.244Z,-5.4
2017-01-22T08:35:03.208Z,-5.4
2017-01-22T08:40:02.904Z,-4.9
2017-01-22T08:45:02.492Z,-4.6
2017-01-22T08:50:03.204Z,-4.5
2017-01-22T08:55:03.175Z,-4.3
2017-01-22T09:00:03.165Z,-3.9
2017-01-22T09:05:03.060Z,-3.7
2017-01-22T09:10:02.745Z,-3.2
2017-01-22T09:15:02.410Z,-2.9
2017-01-22T09:20:03.149Z,-1.8
2017-01-22T09:25:03.013Z,-1.2
2017-01-22T09:30:02.674Z,-1.2
2017-01-22T09:35:02.576Z,-0.5
2017-01-22T09:40:03.505Z,-0.5
2017-01-22T09:45:03.193Z,0.0
2017-01-22T09:50:03.051Z,0.3
2017-01-22T09:55:02.637Z,-0.5
2017-01-22T10:00:03.594Z,0.0
2017-01-22T10:05:03.196Z,0.7
2017-01-22T10:10:02.910Z,0.4
2017-01-22T10:15:02.657Z,0.0
2017-01-22T10:20:03.384Z,0.6
2017-01-22T10:25:03.253Z,0.4
2017-01-22T10:30:03.176Z,0.6
2017-01-22T10:35:02.835Z,0.8
2017-01-22T10:40:02.778Z,0.7
2017-01-22T10:45:02.512Z,0.8
2017-01-22T10:50:03.153Z,1.6
2017-01-22T10:55:03.065Z,1.6
2017-01-22T11:00:02.646Z,1.8
2017-01-22T11:05:03.581Z,1.7
2017-01-22T11:10:03.390Z,1.8
2017-01-22T11:16:59.107Z,1.6
2017-01-22T11:20:02.886Z,1.6
2017-01-22T11:25:02.621Z,2.5
2017-01-22T11:30:03.374Z,2.2
2017-01-22T11:35:03.016Z,1.8
2017-01-22T11:40:02.743Z,2.5
2017-01-22T11:45:02.503Z,2.0
2017-01-22T11:50:03.256Z,2.0
2017-01-22T11:55:03.078Z,2.4
2017-01-22T12:00:02.907Z,2.4
2017-01-22T12:05:02.607Z,1.7
2017-01-22T12:10:03.484Z,2.0
2017-01-22T12:15:02.426Z,2.2
2017-01-22T12:20:03.118Z,2.0
2017-01-22T12:25:02.679Z,2.4
2017-01-22T12:30:03.365Z,2.4
2017-01-22T12:35:02.904Z,2.4
2017-01-22T12:40:02.816Z,2.2
2017-01-22T12:45:02.621Z,2.7
2017-01-22T12:50:03.371Z,1.8
2017-01-22T12:55:03.108Z,1.7
2017-01-22T13:00:02.851Z,1.7
2017-01-22T13:05:02.689Z,1.6
2017-01-22T13:10:02.694Z,1.6
2017-01-22T13:15:03.535Z,1.7
2017-01-22T13:20:03.369Z,1.8
2017-01-22T13:25:03.144Z,2.0
2017-01-22T13:30:02.947Z,2.0
2017-01-22T13:35:02.823Z,1.8
2017-01-22T13:40:02.522Z,1.8
2017-01-22T13:45:03.389Z,1.8
2017-01-22T13:50:03.244Z,2.0
2017-01-22T13:55:02.761Z,1.7
2017-01-22T14:00:02.588Z,1.7
2017-01-22T14:05:02.419Z,1.7
2017-01-22T14:10:03.226Z,1.8
2017-01-22T14:15:03.019Z,1.7
2017-01-22T14:20:02.775Z,1.7
2017-01-22T14:25:02.726Z,1.8
2017-01-22T14:30:02.763Z,1.7
2017-01-22T14:35:02.486Z,1.7
2017-01-22T14:40:02.482Z,1.7
2017-01-22T14:45:03.064Z,2.2
2017-01-22T14:50:02.949Z,2.2
2017-01-22T14:55:02.825Z,1.7
2017-01-22T15:00:02.512Z,1.6
2017-01-22T15:05:03.070Z,1.3
2017-01-22T15:10:03.092Z,1.3
2017-01-22T15:15:03.194Z,1.2
2017-01-22T15:20:03.218Z,1.2
2017-01-22T15:25:02.904Z,1.1
2017-01-22T15:30:02.791Z,1.1
2017-01-22T15:35:02.781Z,0.8
2017-01-22T15:40:02.647Z,0.8
2017-01-22T15:45:03.446Z,0.6
2017-01-22T15:50:02.361Z,0.4
2017-01-22T15:55:03.278Z,0.4
2017-01-22T16:00:02.472Z,0.3
2017-01-22T16:05:03.237Z,0.1
2017-01-22T16:10:03.137Z,0.1
2017-01-22T16:15:03.020Z,0.0
2017-01-22T16:20:02.939Z,-0.5
2017-01-22T16:25:02.584Z,-0.6
2017-01-22T16:30:03.271Z,-0.8
2017-01-22T16:35:03.159Z,-1.1
2017-01-22T16:40:03.080Z,-1.1
2017-01-22T16:45:02.869Z,-1.2
2017-01-22T16:50:02.624Z,-1.5
2017-01-22T16:55:02.523Z,-1.5
2017-01-22T17:00:03.389Z,-1.5
2017-01-22T17:05:03.244Z,-1.7
2017-01-22T17:10:03.174Z,-1.7
2017-01-22T17:15:03.167Z,-1.8
2017-01-22T17:20:02.557Z,-1.8
2017-01-22T17:25:03.362Z,-2.0
2017-01-22T17:30:03.202Z,-2.2
2017-01-22T17:35:03.115Z,-2.5
2017-01-22T17:40:03.274Z,-2.2
2017-01-22T17:45:03.068Z,-2.5
2017-01-22T17:50:03.186Z,-2.2
2017-01-22T17:55:02.430Z,-2.2
2017-01-22T18:00:03.116Z,-2.5
2017-01-22T18:05:03.334Z,-2.7
2017-01-22T18:10:02.476Z,-2.7
2017-01-22T18:15:02.613Z,-2.7
2017-01-22T18:20:03.543Z,-2.9
2017-01-22T18:25:02.655Z,-2.9
2017-01-22T18:30:03.385Z,-2.9
2017-01-22T18:35:03.357Z,-2.9
2017-01-22T18:40:03.268Z,-3.0
2017-01-22T18:45:03.129Z,-3.0
2017-01-22T18:50:03.043Z,-3.2
2017-01-22T18:55:02.927Z,-3.5
2017-01-22T19:00:02.580Z,-3.2
2017-01-22T19:05:03.366Z,-3.2
2017-01-22T19:10:03.089Z,-3.2
2017-01-22T19:15:02.880Z,-3.5
2017-01-22T19:20:02.498Z,-3.5
2017-01-22T19:25:03.573Z,-3.7
2017-01-22T19:30:03.396Z,-3.7
2017-01-22T19:35:03.281Z,-3.7
2017-01-22T19:40:02.915Z,-3.7
2017-01-22T19:45:02.522Z,-3.7
2017-01-22T19:50:03.247Z,-3.7
2017-01-22T19:55:02.995Z,-3.7
2017-01-22T20:00:02.930Z,-4.0
2017-01-22T20:05:02.737Z,-4.0
2017-01-22T20:10:02.676Z,-4.0
2017-01-22T20:15:03.412Z,-4.0
2017-01-22T20:20:03.013Z,-4.3
2017-01-22T20:25:02.651Z,-4.3
2017-01-22T20:30:02.809Z,-4.3
2017-01-22T20:35:02.444Z,-4.0
2017-01-22T20:40:03.089Z,-4.3
2017-01-22T20:45:03.050Z,-4.5
2017-01-22T20:50:02.771Z,-4.5
2017-01-22T20:55:02.592Z,-4.6
2017-01-22T21:00:03.270Z,-4.6
2017-01-22T21:05:03.193Z,-4.6
2017-01-22T21:10:03.034Z,-4.6
2017-01-22T21:15:02.780Z,-4.9
2017-01-22T21:20:02.475Z,-4.6
2017-01-22T21:25:03.154Z,-4.9
2017-01-22T21:30:03.208Z,-4.9
2017-01-22T21:35:03.094Z,-4.9
2017-01-22T21:40:02.799Z,-5.1
2017-01-22T21:45:02.560Z,-5.1
2017-01-22T21:50:03.244Z,-5.1
2017-01-22T21:55:02.930Z,-5.1
2017-01-22T22:00:02.664Z,-5.1
2017-01-22T22:05:02.546Z,-5.4
2017-01-22T22:10:03.430Z,-5.4
2017-01-22T22:15:03.424Z,-5.5
2017-01-22T22:20:03.060Z,-5.8
2017-01-22T22:25:02.845Z,-5.5
2017-01-22T22:30:02.954Z,-5.5
2017-01-22T22:35:02.818Z,-5.5
2017-01-22T22:40:02.695Z,-5.5
2017-01-22T22:45:02.496Z,-5.5
2017-01-22T22:50:02.450Z,-5.5
2017-01-22T22:55:03.174Z,-5.5
2017-01-22T23:00:02.715Z,-5.5
2017-01-22T23:05:02.384Z,-5.5
2017-01-22T23:10:03.032Z,-5.4
2017-01-22T23:15:02.598Z,-5.4
2017-01-22T23:20:03.216Z,-5.1
2017-01-22T23:25:02.914Z,-5.4
2017-01-22T23:30:02.819Z,-5.4
2017-01-22T23:35:02.517Z,-5.5
2017-01-22T23:40:03.380Z,-5.5
2017-01-22T23:45:03.065Z,-5.5
2017-01-22T23:50:02.720Z,-5.5
2017-01-22T23:55:02.433Z,-5.8
